createdAt,value
2022-11-19T00:00:48.246Z,7.90
2022-11-19T00:01:53.016Z,7.45
2022-11-19T00:02:55.445Z,7.55
2022-11-19T00:04:00.189Z,7.97
2022-11-19T00:05:02.345Z,7.25
2022-11-19T00:06:08.944Z,6.70
2022-11-19T00:07:13.737Z,6.85
2022-11-19T00:08:18.197Z,6.50
2022-11-19T00:09:23.126Z,6.78
2022-11-19T00:10:25.329Z,7.18
2022-11-19T00:11:45.007Z,6.75
2022-11-19T00:12:58.518Z,6.05
2022-11-19T00:14:00.650Z,5.55
2022-11-19T00:15:05.539Z,5.28
2022-11-19T00:16:10.071Z,4.80
2022-11-19T00:17:14.829Z,6.35
2022-11-19T00:18:16.865Z,5.15
2022-11-19T00:19:21.722Z,4.68
2022-11-19T00:20:24.180Z,4.95
2022-11-19T00:21:29.168Z,4.90
2022-11-19T00:22:31.440Z,4.53
2022-11-19T00:23:36.338Z,4.82
2022-11-19T00:24:41.866Z,4.90
2022-11-19T00:25:43.915Z,4.60
2022-11-19T00:26:51.221Z,3.60
2022-11-19T00:27:55.927Z,5.30
2022-11-19T00:29:00.695Z,5.30
2022-11-19T00:30:05.541Z,4.93
2022-11-19T00:31:17.747Z,5.03
2022-11-19T00:32:19.963Z,4.10
2022-11-19T00:33:24.651Z,4.85
2022-11-19T00:34:26.681Z,4.28
2022-11-19T00:35:31.374Z,5.10
2022-11-19T00:36:33.401Z,4.72
2022-11-19T00:37:38.247Z,5.45
2022-11-19T00:38:40.485Z,5.05
2022-11-19T00:39:45.245Z,4.97
2022-11-19T00:40:47.299Z,5.28
2022-11-19T00:41:54.586Z,5.57
2022-11-19T00:43:11.412Z,6.03
2022-11-19T00:44:16.152Z,5.60
2022-11-19T00:45:18.162Z,5.45
2022-11-19T00:46:25.912Z,6.10
2022-11-19T00:47:27.985Z,6.07
2022-11-19T00:48:32.792Z,5.53
2022-11-19T00:49:37.854Z,6.18
2022-11-19T00:50:42.621Z,7.22
2022-11-19T00:51:47.351Z,7.35
2022-11-19T00:52:49.391Z,7.13
2022-11-19T00:53:54.268Z,8.25
2022-11-19T00:54:56.257Z,5.95
2022-11-19T00:56:04.386Z,7.25
2022-11-19T00:57:13.517Z,8.82
2022-11-19T00:58:15.684Z,6.82
2022-11-19T00:59:20.844Z,7.43
2022-11-19T01:00:28.092Z,7.43
2022-11-19T01:01:32.775Z,7.07
2022-11-19T01:02:34.904Z,6.47
2022-11-19T01:03:41.180Z,7.75
2022-11-19T01:04:43.358Z,6.50
2022-11-19T01:05:47.963Z,8.10
2022-11-19T01:06:49.973Z,7.25
2022-11-19T01:07:56.790Z,6.97
2022-11-19T01:08:59.347Z,6.20
2022-11-19T01:10:03.987Z,6.15
2022-11-19T01:11:08.148Z,6.38
2022-11-19T01:12:15.797Z,6.30
2022-11-19T01:13:33.197Z,6.65
2022-11-19T01:14:35.385Z,6.85
2022-11-19T01:15:39.991Z,6.95
2022-11-19T01:16:44.711Z,8.07
2022-11-19T01:17:46.732Z,6.93
2022-11-19T01:18:52.472Z,7.53
2022-11-19T01:19:55.597Z,7.75
2022-11-19T01:21:00.362Z,7.47
2022-11-19T01:22:02.361Z,6.03
2022-11-19T01:23:06.989Z,6.45
2022-11-19T01:24:09.356Z,6.45
2022-11-19T01:25:14.313Z,7.30
2022-11-19T01:26:19.769Z,6.78
2022-11-19T01:27:24.434Z,7.15
2022-11-19T01:28:31.739Z,7.93
2022-11-19T01:29:33.830Z,9.85
2022-11-19T01:30:42.089Z,8.85
2022-11-19T01:31:46.870Z,8.95
2022-11-19T01:32:48.924Z,8.02
2022-11-19T01:33:53.816Z,8.23
2022-11-19T01:34:55.838Z,7.80
2022-11-19T01:36:02.473Z,7.35
2022-11-19T01:37:04.501Z,7.07
2022-11-19T01:38:09.738Z,7.82
2022-11-19T01:39:11.748Z,7.40
2022-11-19T01:40:18.209Z,7.93
2022-11-19T01:41:24.933Z,7.00
2022-11-19T01:42:58.464Z,7.15
2022-11-19T01:44:04.837Z,8.23
2022-11-19T01:45:08.252Z,8.05
2022-11-19T01:46:13.927Z,8.32
2022-11-19T01:47:16.120Z,8.25
2022-11-19T01:48:25.880Z,9.30
2022-11-19T01:49:27.938Z,9.23
2022-11-19T01:50:36.444Z,8.60
2022-11-19T01:51:44.010Z,9.10
2022-11-19T01:52:46.512Z,9.65
2022-11-19T01:53:54.780Z,11.25
2022-11-19T01:54:56.915Z,10.63
2022-11-19T01:56:04.168Z,11.20
2022-11-19T01:57:10.270Z,10.27
2022-11-19T01:58:22.348Z,10.30
2022-11-19T01:59:26.509Z,11.27
2022-11-19T02:00:31.465Z,10.20
2022-11-19T02:01:33.965Z,11.73
2022-11-19T02:02:38.846Z,11.18
2022-11-19T02:03:41.595Z,10.30
2022-11-19T02:04:46.624Z,10.35
2022-11-19T02:05:49.975Z,9.13
2022-11-19T02:06:55.641Z,10.02
2022-11-19T02:07:58.808Z,9.75
2022-11-19T02:09:03.524Z,9.02
2022-11-19T02:10:07.086Z,9.45
2022-11-19T02:11:40.051Z,8.90
2022-11-19T02:12:48.079Z,8.43
2022-11-19T02:14:06.046Z,7.70
2022-11-19T02:15:22.753Z,8.07
2022-11-19T02:16:32.722Z,8.32
2022-11-19T02:17:47.169Z,8.15
2022-11-19T02:18:57.167Z,7.75
2022-11-19T02:20:27.012Z,8.13
2022-11-19T02:21:37.099Z,8.18
2022-11-19T02:23:07.696Z,7.55
2022-11-19T02:24:40.544Z,7.20
2022-11-19T02:26:05.761Z,7.93
2022-11-19T02:27:40.946Z,7.45
2022-11-19T02:28:47.430Z,6.85
2022-11-19T02:30:05.997Z,7.40
2022-11-19T02:31:14.663Z,6.90
2022-11-19T02:32:21.294Z,7.65
2022-11-19T02:33:30.994Z,6.70
2022-11-19T02:34:41.603Z,6.95
2022-11-19T02:35:52.859Z,5.47
2022-11-19T02:37:00.527Z,6.45
2022-11-19T02:38:12.949Z,6.03
2022-11-19T02:39:19.310Z,6.25
2022-11-19T02:40:35.647Z,6.85
2022-11-19T02:41:41.173Z,6.40
2022-11-19T02:42:53.162Z,6.68
2022-11-19T02:44:21.074Z,6.07
2022-11-19T02:45:37.977Z,6.47
2022-11-19T02:46:41.947Z,6.35
2022-11-19T02:47:50.483Z,6.03
2022-11-19T02:48:53.782Z,6.45
2022-11-19T02:50:04.279Z,7.65
2022-11-19T02:51:08.229Z,7.05
2022-11-19T02:52:13.505Z,7.35
2022-11-19T02:53:15.891Z,7.50
2022-11-19T02:54:22.677Z,7.20
2022-11-19T02:55:24.986Z,8.60
2022-11-19T02:56:51.952Z,8.05
2022-11-19T02:57:59.534Z,7.63
2022-11-19T02:59:17.760Z,7.15
2022-11-19T03:00:35.121Z,7.75
2022-11-19T03:01:59.322Z,7.60
2022-11-19T03:03:27.501Z,6.95
2022-11-19T03:04:33.292Z,7.00
2022-11-19T03:05:41.742Z,7.45
2022-11-19T03:06:46.595Z,7.90
2022-11-19T03:07:48.994Z,8.05
2022-11-19T03:08:54.437Z,8.55
2022-11-19T03:09:59.911Z,8.35
2022-11-19T03:11:14.439Z,8.07
2022-11-19T03:12:23.309Z,7.43
2022-11-19T03:13:45.897Z,7.90
2022-11-19T03:15:10.694Z,8.05
2022-11-19T03:16:33.056Z,7.85
2022-11-19T03:17:53.105Z,8.30
2022-11-19T03:18:59.738Z,7.80
2022-11-19T03:20:07.844Z,7.30
2022-11-19T03:21:17.163Z,7.05
2022-11-19T03:22:25.361Z,8.00
2022-11-19T03:23:32.317Z,7.57
2022-11-19T03:24:40.229Z,7.18
2022-11-19T03:25:47.441Z,6.78
2022-11-19T03:26:56.194Z,7.70
2022-11-19T03:28:02.281Z,7.68
2022-11-19T03:29:12.621Z,8.10
2022-11-19T03:30:17.202Z,6.97
2022-11-19T03:31:27.873Z,6.72
2022-11-19T03:32:35.031Z,6.80
2022-11-19T03:33:46.208Z,7.05
2022-11-19T03:34:53.474Z,7.43
2022-11-19T03:36:04.051Z,6.68
2022-11-19T03:37:09.709Z,7.20
2022-11-19T03:38:19.115Z,7.25
2022-11-19T03:39:22.838Z,7.13
2022-11-19T03:40:29.766Z,7.15
2022-11-19T03:41:34.559Z,7.30
2022-11-19T03:42:44.005Z,6.38
2022-11-19T03:43:52.185Z,7.35
2022-11-19T03:45:02.798Z,6.50
2022-11-19T03:46:09.273Z,5.97
2022-11-19T03:47:18.954Z,6.28
2022-11-19T03:48:23.519Z,6.10
2022-11-19T03:49:34.862Z,6.07
2022-11-19T03:50:49.233Z,5.53
2022-11-19T03:51:57.763Z,6.05
2022-11-19T03:53:04.480Z,5.68
2022-11-19T03:54:07.206Z,5.88
2022-11-19T03:55:12.471Z,5.38
2022-11-19T03:56:20.692Z,6.38
2022-11-19T03:57:27.891Z,5.03
2022-11-19T03:58:30.004Z,5.38
2022-11-19T03:59:37.498Z,6.32
2022-11-19T04:00:40.002Z,5.68
2022-11-19T04:01:46.918Z,6.45
2022-11-19T04:02:49.039Z,6.55
2022-11-19T04:04:05.931Z,5.88
2022-11-19T04:05:13.391Z,6.25
2022-11-19T04:06:15.542Z,6.47
2022-11-19T04:07:24.593Z,6.78
2022-11-19T04:08:26.711Z,6.85
2022-11-19T04:09:31.357Z,6.82
2022-11-19T04:10:33.438Z,6.75
2022-11-19T04:11:38.052Z,6.40
2022-11-19T04:12:40.127Z,6.65
2022-11-19T04:13:44.849Z,7.45
2022-11-19T04:14:47.649Z,7.10
2022-11-19T04:15:52.445Z,6.40
2022-11-19T04:16:54.547Z,6.25
2022-11-19T04:17:59.688Z,7.00
2022-11-19T04:19:01.724Z,6.70
2022-11-19T04:20:07.208Z,7.72
2022-11-19T04:21:11.982Z,8.00
2022-11-19T04:22:16.723Z,7.80
2022-11-19T04:23:18.774Z,7.93
2022-11-19T04:24:23.407Z,8.25
2022-11-19T04:25:25.611Z,9.93
2022-11-19T04:26:30.225Z,9.18
2022-11-19T04:27:32.464Z,8.60
2022-11-19T04:28:37.243Z,8.85
2022-11-19T04:29:39.278Z,8.48
2022-11-19T04:30:44.079Z,6.80
2022-11-19T04:31:46.257Z,7.22
2022-11-19T04:32:51.640Z,7.65
2022-11-19T04:34:02.637Z,6.55
2022-11-19T04:35:08.275Z,6.13
2022-11-19T04:36:13.058Z,6.88
2022-11-19T04:37:17.718Z,6.88
2022-11-19T04:38:19.820Z,6.97
2022-11-19T04:39:24.466Z,6.00
2022-11-19T04:40:26.529Z,6.40
2022-11-19T04:41:31.285Z,6.85
2022-11-19T04:42:33.321Z,5.55
2022-11-19T04:43:38.057Z,7.03
2022-11-19T04:44:40.161Z,6.30
2022-11-19T04:45:44.754Z,5.90
2022-11-19T04:46:46.883Z,7.07
2022-11-19T04:47:51.581Z,6.88
2022-11-19T04:48:53.638Z,6.90
2022-11-19T04:49:58.313Z,7.43
2022-11-19T04:51:00.324Z,7.13
2022-11-19T04:52:08.088Z,7.22
2022-11-19T04:53:10.202Z,8.00
2022-11-19T04:54:15.114Z,7.05
2022-11-19T04:55:17.365Z,7.95
2022-11-19T04:56:24.569Z,8.90
2022-11-19T04:57:26.642Z,8.50
2022-11-19T04:58:31.387Z,7.53
2022-11-19T04:59:33.493Z,8.18
2022-11-19T05:00:38.332Z,8.02
2022-11-19T05:01:40.466Z,8.18
2022-11-19T05:02:45.693Z,7.90
2022-11-19T05:03:48.189Z,8.70
2022-11-19T05:04:52.901Z,8.20
2022-11-19T05:05:55.414Z,8.38
2022-11-19T05:07:00.127Z,9.13
2022-11-19T05:08:05.607Z,8.63
2022-11-19T05:09:10.310Z,9.02
2022-11-19T05:10:12.394Z,10.63
2022-11-19T05:11:17.148Z,9.80
2022-11-19T05:12:19.462Z,8.00
2022-11-19T05:13:24.134Z,8.90
2022-11-19T05:14:30.373Z,8.30
2022-11-19T05:15:35.437Z,9.52
2022-11-19T05:16:37.502Z,8.60
2022-11-19T05:17:44.865Z,8.55
2022-11-19T05:18:49.222Z,8.68
2022-11-19T05:19:54.025Z,9.27
2022-11-19T05:20:56.060Z,9.23
2022-11-19T05:22:00.679Z,9.32
2022-11-19T05:23:05.932Z,9.43
2022-11-19T05:24:11.340Z,9.80
2022-11-19T05:25:13.396Z,10.68
2022-11-19T05:26:18.041Z,10.52
2022-11-19T05:27:20.094Z,9.90
2022-11-19T05:28:38.392Z,9.13
2022-11-19T05:29:41.414Z,8.95
2022-11-19T05:30:46.141Z,10.68
2022-11-19T05:31:48.329Z,11.00
2022-11-19T05:32:53.036Z,10.38
2022-11-19T05:33:59.273Z,11.23
2022-11-19T05:35:01.468Z,12.38
2022-11-19T05:36:06.653Z,11.55
2022-11-19T05:37:09.029Z,12.20
2022-11-19T05:38:16.548Z,10.73
2022-11-19T05:39:22.070Z,11.55
2022-11-19T05:40:27.329Z,14.13
2022-11-19T05:41:29.392Z,12.10
2022-11-19T05:42:34.318Z,10.48
2022-11-19T05:43:39.062Z,10.02
2022-11-19T05:44:41.411Z,11.68
2022-11-19T05:45:46.126Z,17.65
2022-11-19T05:46:48.333Z,19.92
2022-11-19T05:47:57.535Z,13.40
2022-11-19T05:48:59.883Z,13.20
2022-11-19T05:50:04.573Z,12.05
2022-11-19T05:51:06.741Z,13.40
2022-11-19T05:52:11.578Z,12.93
2022-11-19T05:53:18.870Z,12.50
2022-11-19T05:54:21.595Z,10.60
2022-11-19T05:55:26.483Z,11.45
2022-11-19T05:56:33.952Z,15.35
2022-11-19T05:57:37.177Z,11.23
2022-11-19T05:58:41.943Z,10.55
2022-11-19T05:59:44.406Z,11.52
2022-11-19T06:00:49.099Z,11.43
2022-11-19T06:01:51.147Z,14.52
2022-11-19T06:02:55.883Z,11.52
2022-11-19T06:03:58.178Z,12.02
2022-11-19T06:05:02.921Z,12.15
2022-11-19T06:06:05.599Z,11.50
2022-11-19T06:07:10.351Z,12.10
2022-11-19T06:08:12.462Z,10.60
2022-11-19T06:09:20.250Z,11.27
2022-11-19T06:10:22.447Z,11.98
2022-11-19T06:11:39.524Z,13.25
2022-11-19T06:12:46.441Z,11.27
2022-11-19T06:13:48.598Z,11.95
2022-11-19T06:14:53.414Z,12.57
2022-11-19T06:15:55.559Z,12.07
2022-11-19T06:17:02.636Z,12.02
2022-11-19T06:18:05.114Z,12.77
2022-11-19T06:19:09.879Z,13.13
2022-11-19T06:20:12.075Z,13.02
2022-11-19T06:21:17.331Z,13.18
2022-11-19T06:22:22.118Z,13.55
2022-11-19T06:23:24.367Z,13.15
2022-11-19T06:24:31.756Z,16.42
2022-11-19T06:25:33.969Z,14.48
2022-11-19T06:26:38.890Z,18.38
2022-11-19T06:27:41.121Z,14.90
2022-11-19T06:28:46.124Z,26.02
2022-11-19T06:29:51.097Z,17.42
2022-11-19T06:30:59.713Z,13.23
2022-11-19T06:32:01.873Z,15.20
2022-11-19T06:33:06.695Z,16.48
2022-11-19T06:34:09.096Z,18.15
2022-11-19T06:35:14.509Z,18.17
2022-11-19T06:36:16.870Z,13.68
2022-11-19T06:37:21.781Z,14.55
2022-11-19T06:38:24.146Z,14.98
2022-11-19T06:39:31.403Z,15.40
2022-11-19T06:40:36.147Z,15.30
2022-11-19T06:41:38.212Z,11.00
2022-11-19T06:42:46.090Z,15.98
2022-11-19T06:43:57.102Z,14.35
2022-11-19T06:45:06.447Z,15.13
2022-11-19T06:46:13.779Z,21.25
2022-11-19T06:47:29.120Z,19.83
2022-11-19T06:48:38.612Z,16.02
2022-11-19T06:49:51.257Z,14.52
2022-11-19T06:51:00.517Z,14.52
2022-11-19T06:52:24.567Z,18.17
2022-11-19T06:53:32.618Z,15.73
2022-11-19T06:54:43.693Z,14.50
2022-11-19T06:56:10.086Z,15.25
2022-11-19T06:57:18.079Z,22.27
2022-11-19T06:58:34.292Z,32.13
2022-11-19T06:59:41.488Z,24.08
2022-11-19T07:00:57.112Z,21.40
2022-11-19T07:02:12.385Z,20.50
2022-11-19T07:03:23.087Z,18.33
2022-11-19T07:04:38.412Z,18.47
2022-11-19T07:05:44.375Z,24.67
2022-11-19T07:06:49.470Z,32.22
2022-11-19T07:08:05.868Z,19.10
2022-11-19T07:09:20.701Z,14.00
2022-11-19T07:10:35.349Z,14.93
2022-11-19T07:11:41.437Z,13.85
2022-11-19T07:13:02.509Z,15.43
2022-11-19T07:14:06.587Z,14.82
2022-11-19T07:15:18.746Z,18.88
2022-11-19T07:16:27.661Z,16.80
2022-11-19T07:17:50.740Z,18.45
2022-11-19T07:19:03.395Z,18.42
2022-11-19T07:20:14.862Z,12.73
2022-11-19T07:21:17.493Z,13.52
2022-11-19T07:22:28.790Z,15.45
2022-11-19T07:23:33.961Z,16.13
2022-11-19T07:24:56.967Z,13.77
2022-11-19T07:26:05.251Z,14.38
2022-11-19T07:27:14.233Z,13.20
2022-11-19T07:28:16.383Z,13.32
2022-11-19T07:29:34.384Z,13.32
2022-11-19T07:30:50.662Z,13.38
2022-11-19T07:31:55.973Z,13.75
2022-11-19T07:33:00.044Z,13.70
2022-11-19T07:34:08.805Z,12.73
2022-11-19T07:35:17.622Z,14.88
2022-11-19T07:36:20.429Z,14.60
2022-11-19T07:37:25.487Z,14.85
2022-11-19T07:38:34.107Z,13.32
2022-11-19T07:39:43.990Z,13.80
2022-11-19T07:40:53.756Z,13.02
2022-11-19T07:42:13.638Z,9.93
2022-11-19T07:43:20.662Z,13.63
2022-11-19T07:44:22.790Z,12.88
2022-11-19T07:45:27.424Z,13.20
2022-11-19T07:46:29.444Z,12.70
2022-11-19T07:47:35.870Z,12.63
2022-11-19T07:48:37.911Z,13.15
2022-11-19T07:49:42.569Z,13.13
2022-11-19T07:50:56.470Z,11.88
2022-11-19T07:52:01.986Z,12.18
2022-11-19T07:53:04.505Z,12.80
2022-11-19T07:54:09.589Z,11.00
2022-11-19T07:55:14.379Z,10.50
2022-11-19T07:56:16.923Z,10.73
2022-11-19T07:57:29.924Z,11.18
2022-11-19T07:58:32.686Z,10.10
2022-11-19T07:59:37.332Z,10.95
2022-11-19T08:00:39.342Z,10.45
2022-11-19T08:01:44.081Z,11.25
2022-11-19T08:02:46.538Z,9.95
2022-11-19T08:03:56.337Z,10.70
2022-11-19T08:04:59.373Z,10.77
2022-11-19T08:06:05.973Z,9.85
2022-11-19T08:07:08.636Z,10.50
2022-11-19T08:08:13.309Z,11.13
2022-11-19T08:09:15.436Z,9.88
2022-11-19T08:10:20.216Z,9.43
2022-11-19T08:11:23.336Z,9.45
2022-11-19T08:12:31.807Z,9.25
2022-11-19T08:13:34.667Z,9.43
2022-11-19T08:14:39.310Z,8.98
2022-11-19T08:15:41.442Z,9.00
2022-11-19T08:16:58.463Z,8.63
2022-11-19T08:18:16.147Z,8.35
2022-11-19T08:19:19.208Z,8.52
2022-11-19T08:20:24.200Z,8.98
2022-11-19T08:21:26.329Z,9.15
2022-11-19T08:22:31.068Z,9.35
2022-11-19T08:23:34.414Z,8.60
2022-11-19T08:24:39.036Z,9.20
2022-11-19T08:25:43.387Z,10.93
2022-11-19T08:26:48.793Z,8.10
2022-11-19T08:27:54.061Z,9.43
2022-11-19T08:28:58.779Z,9.52
2022-11-19T08:30:03.605Z,8.30
2022-11-19T08:31:06.948Z,14.98
2022-11-19T08:32:11.581Z,10.82
2022-11-19T08:33:13.995Z,8.48
2022-11-19T08:34:19.685Z,8.23
2022-11-19T08:35:22.303Z,8.43
2022-11-19T08:36:27.088Z,7.55
2022-11-19T08:37:31.762Z,8.00
2022-11-19T08:38:38.817Z,11.20
2022-11-19T08:39:41.278Z,10.80
2022-11-19T08:40:45.945Z,9.98
2022-11-19T08:42:02.966Z,10.68
2022-11-19T08:43:07.844Z,13.75
2022-11-19T08:44:10.400Z,8.10
2022-11-19T08:45:19.566Z,9.35
2022-11-19T08:46:25.677Z,10.80
2022-11-19T08:47:27.898Z,9.02
2022-11-19T08:48:32.993Z,9.65
2022-11-19T08:49:37.751Z,8.45
2022-11-19T08:50:45.060Z,9.27
2022-11-19T08:51:47.193Z,9.13
2022-11-19T08:52:57.367Z,9.30
2022-11-19T08:53:59.664Z,9.63
2022-11-19T08:55:04.534Z,10.63
2022-11-19T08:56:12.832Z,8.70
2022-11-19T08:57:18.890Z,10.23
2022-11-19T08:58:26.817Z,11.35
2022-11-19T08:59:31.570Z,9.25
2022-11-19T09:00:36.486Z,9.05
2022-11-19T09:01:42.090Z,8.25
2022-11-19T09:02:44.226Z,7.50
2022-11-19T09:03:49.053Z,8.25
2022-11-19T09:04:51.442Z,8.43
2022-11-19T09:06:01.746Z,8.30
2022-11-19T09:07:03.904Z,7.22
2022-11-19T09:08:09.083Z,7.72
2022-11-19T09:09:11.639Z,7.18
2022-11-19T09:10:16.443Z,6.80
2022-11-19T09:11:26.659Z,6.07
2022-11-19T09:12:39.995Z,6.60
2022-11-19T09:13:47.793Z,6.70
2022-11-19T09:14:59.412Z,6.75
2022-11-19T09:17:35.345Z,9.75
2022-11-19T09:18:59.296Z,11.48
2022-11-19T09:20:20.805Z,7.35
2022-11-19T09:21:31.132Z,5.88
2022-11-19T09:22:42.869Z,6.50
2022-11-19T09:23:51.581Z,6.85
2022-11-19T09:25:09.783Z,5.78
2022-11-19T09:26:19.623Z,4.05
2022-11-19T09:27:53.374Z,5.03
2022-11-19T09:29:10.081Z,4.88
2022-11-19T09:30:22.293Z,4.10
2022-11-19T09:31:38.237Z,3.85
2022-11-19T09:34:24.799Z,4.50
2022-11-19T09:35:36.023Z,4.30
2022-11-19T09:36:48.935Z,4.18
2022-11-19T09:38:19.282Z,4.00
2022-11-19T09:39:49.771Z,4.40
2022-11-19T09:41:08.263Z,3.70
2022-11-19T09:42:32.462Z,4.03
2022-11-19T09:43:58.064Z,4.60
2022-11-19T09:45:42.318Z,4.60
2022-11-19T09:47:09.007Z,6.65
2022-11-19T09:48:47.931Z,3.20
2022-11-19T09:50:23.222Z,4.63
2022-11-19T09:51:37.496Z,4.07
2022-11-19T09:52:55.777Z,3.47
2022-11-19T09:54:30.942Z,2.83
2022-11-19T09:55:48.596Z,3.33
2022-11-19T09:57:08.703Z,3.40
2022-11-19T09:58:44.254Z,4.15
2022-11-19T09:59:57.407Z,4.07
2022-11-19T10:01:12.121Z,3.80
2022-11-19T10:02:25.609Z,6.78
2022-11-19T10:03:36.401Z,6.72
2022-11-19T10:04:49.284Z,3.58
2022-11-19T10:06:42.986Z,3.33
2022-11-19T10:08:10.247Z,4.93
2022-11-19T10:09:58.761Z,4.32
2022-11-19T10:11:21.438Z,4.28
2022-11-19T10:12:57.294Z,3.88
2022-11-19T10:14:16.743Z,3.83
2022-11-19T10:15:34.499Z,3.10
2022-11-19T10:17:03.520Z,3.35
2022-11-19T10:18:22.052Z,4.50
2022-11-19T10:19:52.238Z,3.63
2022-11-19T10:21:10.709Z,3.53
2022-11-19T10:22:24.290Z,4.00
2022-11-19T10:23:42.624Z,4.20
2022-11-19T10:25:07.381Z,4.25
2022-11-19T10:26:40.358Z,3.75
2022-11-19T10:28:14.255Z,8.75
2022-11-19T10:29:23.835Z,4.60
2022-11-19T10:30:36.391Z,4.78
2022-11-19T10:31:55.965Z,5.32
2022-11-19T10:33:20.665Z,4.72
2022-11-19T10:34:44.597Z,5.25
2022-11-19T10:36:19.070Z,4.88
2022-11-19T10:37:35.911Z,5.15
2022-11-19T10:39:05.080Z,4.70
2022-11-19T10:40:29.989Z,4.53
2022-11-19T10:41:49.438Z,4.72
2022-11-19T10:43:05.405Z,4.43
2022-11-19T10:44:37.622Z,3.97
2022-11-19T10:45:54.688Z,4.18
2022-11-19T10:47:11.935Z,5.15
2022-11-19T10:48:56.910Z,4.43
2022-11-19T10:50:11.308Z,5.35
2022-11-19T10:51:21.395Z,4.32
2022-11-19T10:52:29.299Z,4.18
2022-11-19T10:53:39.477Z,4.28
2022-11-19T10:54:42.053Z,5.40
2022-11-19T10:55:54.450Z,4.90
2022-11-19T10:56:58.277Z,5.43
2022-11-19T10:58:11.180Z,3.97
2022-11-19T10:59:17.471Z,6.03
2022-11-19T11:00:22.749Z,4.95
2022-11-19T11:01:29.982Z,5.10
2022-11-19T11:02:44.427Z,8.45
2022-11-19T11:03:57.643Z,4.90
2022-11-19T11:05:02.849Z,4.63
2022-11-19T11:06:10.298Z,7.22
2022-11-19T11:07:12.778Z,12.43
2022-11-19T11:08:17.904Z,3.92
2022-11-19T11:09:31.292Z,9.98
2022-11-19T11:10:42.825Z,4.00
2022-11-19T11:13:49.379Z,4.53
2022-11-19T11:15:01.721Z,4.30
2022-11-19T11:16:18.746Z,4.85
2022-11-19T11:17:29.719Z,4.20
2022-11-19T11:18:35.969Z,4.65
2022-11-19T11:19:45.606Z,5.00
2022-11-19T11:20:53.941Z,4.28
2022-11-19T11:22:03.487Z,4.88
2022-11-19T11:23:10.191Z,4.03
2022-11-19T11:24:19.953Z,3.90
2022-11-19T11:25:24.668Z,4.20
2022-11-19T11:26:33.874Z,3.70
2022-11-19T11:27:36.343Z,4.70
2022-11-19T11:28:58.982Z,4.72
2022-11-19T11:30:20.935Z,5.13
2022-11-19T11:32:35.347Z,4.32
2022-11-19T11:33:41.031Z,4.18
2022-11-19T11:34:48.358Z,5.30
2022-11-19T11:35:54.793Z,5.03
2022-11-19T11:36:57.787Z,4.65
2022-11-19T11:38:03.679Z,4.53
2022-11-19T11:39:06.815Z,5.72
2022-11-19T11:40:22.289Z,5.35
2022-11-19T11:42:59.665Z,3.58
2022-11-19T11:44:04.837Z,4.53
2022-11-19T11:45:23.309Z,4.65
2022-11-19T11:46:25.371Z,5.68
2022-11-19T11:47:33.909Z,6.03
2022-11-19T11:48:47.456Z,5.68
2022-11-19T11:50:03.450Z,4.30
2022-11-19T11:51:05.815Z,4.00
2022-11-19T11:52:21.048Z,4.35
2022-11-19T11:53:29.996Z,3.45
2022-11-19T11:54:34.699Z,3.75
2022-11-19T11:55:40.527Z,3.72
2022-11-19T11:56:43.004Z,3.95
2022-11-19T11:57:55.550Z,4.53
2022-11-19T11:59:17.855Z,3.90
2022-11-19T12:00:35.253Z,5.13
2022-11-19T12:01:40.942Z,6.40
2022-11-19T12:03:03.730Z,5.40
2022-11-19T12:04:09.433Z,5.45
2022-11-19T12:05:20.781Z,5.43
2022-11-19T12:06:26.748Z,5.70
2022-11-19T12:08:02.753Z,4.75
2022-11-19T12:09:10.112Z,4.53
2022-11-19T12:10:27.281Z,4.68
2022-11-19T12:11:51.183Z,4.32
2022-11-19T12:13:11.018Z,3.70
2022-11-19T12:14:14.223Z,4.20
2022-11-19T12:15:27.420Z,4.68
2022-11-19T12:16:44.917Z,4.18
2022-11-19T12:17:57.720Z,4.00
2022-11-19T12:19:18.384Z,3.67
2022-11-19T12:20:35.620Z,5.05
2022-11-19T12:21:53.065Z,4.32
2022-11-19T12:23:31.612Z,4.38
2022-11-19T12:24:53.377Z,5.03
2022-11-19T12:26:13.025Z,4.13
2022-11-19T12:27:22.986Z,3.60
2022-11-19T12:28:41.445Z,16.27
2022-11-19T12:29:57.099Z,7.95
2022-11-19T12:31:09.056Z,4.38
2022-11-19T12:32:32.622Z,5.80
2022-11-19T12:34:05.604Z,3.80
2022-11-19T12:35:22.391Z,4.68
2022-11-19T12:36:40.291Z,4.28
2022-11-19T12:38:00.527Z,17.50
2022-11-19T12:39:12.244Z,5.45
2022-11-19T12:40:39.851Z,5.30
2022-11-19T12:42:01.438Z,4.05
2022-11-19T12:43:18.482Z,3.03
2022-11-19T12:44:34.884Z,3.60
2022-11-19T12:45:51.119Z,5.90
2022-11-19T12:47:01.593Z,5.13
2022-11-19T12:48:32.907Z,3.85
2022-11-19T12:49:54.372Z,4.82
2022-11-19T12:51:03.179Z,3.47
2022-11-19T12:52:27.905Z,4.63
2022-11-19T12:53:45.202Z,2.55
2022-11-19T12:54:59.092Z,3.28
2022-11-19T12:56:13.301Z,3.50
2022-11-19T12:57:32.883Z,3.92
2022-11-19T12:58:45.119Z,3.47
2022-11-19T13:00:07.533Z,4.10
2022-11-19T13:01:14.629Z,3.90
2022-11-19T13:02:25.885Z,4.82
2022-11-19T13:03:46.423Z,4.18
2022-11-19T13:04:57.741Z,4.05
2022-11-19T13:06:05.439Z,4.28
2022-11-19T13:07:18.772Z,3.83
2022-11-19T13:08:30.979Z,4.85
2022-11-19T13:09:40.385Z,4.68
2022-11-19T13:10:53.726Z,4.93
2022-11-19T13:12:00.769Z,5.30
2022-11-19T13:13:06.523Z,6.25
2022-11-19T13:14:17.666Z,7.40
2022-11-19T13:15:23.648Z,4.72
2022-11-19T13:16:31.535Z,6.32
2022-11-19T13:17:38.524Z,5.68
2022-11-19T13:18:47.063Z,5.82
2022-11-19T13:19:56.706Z,11.60
2022-11-19T13:21:05.713Z,7.00
2022-11-19T13:22:18.988Z,9.15
2022-11-19T13:23:26.617Z,7.32
2022-11-19T13:24:35.544Z,5.53
2022-11-19T13:25:45.158Z,5.07
2022-11-19T13:26:47.892Z,7.68
2022-11-19T13:27:54.662Z,5.32
2022-11-19T13:29:04.229Z,4.40
2022-11-19T13:30:19.158Z,4.72
2022-11-19T13:31:31.276Z,5.03
2022-11-19T13:32:43.455Z,4.20
2022-11-19T13:33:54.112Z,4.93
2022-11-19T13:35:08.749Z,4.60
2022-11-19T13:36:21.351Z,6.75
2022-11-19T13:37:41.098Z,6.35
2022-11-19T13:38:51.507Z,6.07
2022-11-19T13:40:02.763Z,6.00
2022-11-19T13:41:14.290Z,4.95
2022-11-19T13:42:33.963Z,4.45
2022-11-19T13:43:51.170Z,6.82
2022-11-19T13:44:53.450Z,5.50
2022-11-19T13:46:08.587Z,6.15
2022-11-19T13:47:18.476Z,7.18
2022-11-19T13:48:29.310Z,6.32
2022-11-19T13:49:40.110Z,6.13
2022-11-19T13:50:45.957Z,6.47
2022-11-19T13:51:55.116Z,10.75
2022-11-19T13:53:07.969Z,8.40
2022-11-19T13:54:22.121Z,7.93
2022-11-19T13:55:36.429Z,7.55
2022-11-19T13:56:43.243Z,9.25
2022-11-19T13:57:48.133Z,9.43
2022-11-19T13:58:53.841Z,7.15
2022-11-19T14:00:04.832Z,8.95
2022-11-19T14:01:26.570Z,8.38
2022-11-19T14:02:52.269Z,19.15
2022-11-19T14:04:12.910Z,10.82
2022-11-19T14:05:47.633Z,7.38
2022-11-19T14:07:03.535Z,8.05
2022-11-19T14:08:30.941Z,10.40
2022-11-19T14:09:43.357Z,8.63
2022-11-19T14:10:59.955Z,7.63
2022-11-19T14:12:32.276Z,7.68
2022-11-19T14:13:49.250Z,7.13
2022-11-19T14:15:32.322Z,8.20
2022-11-19T14:16:58.344Z,7.80
2022-11-19T14:18:24.303Z,7.40
2022-11-19T14:19:41.461Z,8.40
2022-11-19T14:21:00.551Z,7.53
2022-11-19T14:22:55.411Z,8.00
2022-11-19T14:24:12.599Z,13.32
2022-11-19T14:25:56.370Z,8.07
2022-11-19T14:27:21.371Z,7.85
2022-11-19T14:28:47.942Z,8.43
2022-11-19T14:29:59.362Z,10.27
2022-11-19T14:31:06.512Z,7.25
2022-11-19T14:32:21.544Z,10.15
2022-11-19T14:33:45.484Z,8.75
2022-11-19T14:35:24.894Z,12.98
2022-11-19T14:36:43.829Z,9.75
2022-11-19T14:37:51.426Z,8.10
2022-11-19T14:38:58.722Z,9.23
2022-11-19T14:40:08.380Z,8.18
2022-11-19T14:41:27.291Z,9.82
2022-11-19T14:42:32.119Z,8.48
2022-11-19T14:44:04.779Z,9.45
2022-11-19T14:45:23.129Z,8.85
2022-11-19T14:46:27.593Z,8.43
2022-11-19T14:47:35.650Z,7.38
2022-11-19T14:48:51.693Z,7.63
2022-11-19T14:49:57.573Z,7.95
2022-11-19T14:51:08.650Z,7.93
2022-11-19T14:52:23.249Z,8.18
2022-11-19T14:53:28.209Z,8.05
2022-11-19T14:54:42.458Z,8.27
2022-11-19T14:55:53.968Z,8.88
2022-11-19T14:57:09.111Z,8.48
2022-11-19T14:58:24.280Z,9.40
2022-11-19T14:59:31.620Z,11.60
2022-11-19T15:00:39.734Z,10.75
2022-11-19T15:01:52.888Z,10.70
2022-11-19T15:02:58.969Z,10.68
2022-11-19T15:04:07.961Z,10.85
2022-11-19T15:05:21.669Z,10.75
2022-11-19T15:06:24.207Z,12.77
2022-11-19T15:07:38.420Z,13.70
2022-11-19T15:08:57.504Z,12.02
2022-11-19T15:10:18.839Z,11.75
2022-11-19T15:11:23.815Z,10.25
2022-11-19T15:12:47.885Z,10.23
2022-11-19T15:14:27.539Z,10.05
2022-11-19T15:15:37.329Z,11.00
2022-11-19T15:16:43.164Z,13.10
2022-11-19T15:17:47.735Z,11.88
2022-11-19T15:19:25.956Z,11.57
2022-11-19T15:20:35.130Z,11.15
2022-11-19T15:22:12.785Z,12.73
2022-11-19T15:23:25.634Z,12.98
2022-11-19T15:24:52.434Z,13.38
2022-11-19T15:26:06.947Z,16.15
2022-11-19T15:27:21.005Z,12.88
2022-11-19T15:28:39.218Z,12.55
2022-11-19T15:30:10.444Z,12.73
2022-11-19T15:31:29.363Z,13.43
2022-11-19T15:32:53.122Z,14.20
2022-11-19T15:34:48.753Z,15.63